West Point, Mississippi
Current Conditions -  °F | °C
As of 11:50 AM on Saturday 20 Dec 2014 (Local Time) from KGTR Reporting Station
Clear Clear  
Wind Chill: 52°   Ceiling: Unl
Heat Index: 52°   Visibility: 10mi
Dew Point: 37°   Wind: 7mph
Humidity: 58%   Direction: 20°NNE
Pressure: 30.23"   Gusts: NA
Location:  33.61°N, 88.65°W
Report Text: KGTR 201750Z 02006KT 10SM SKC 11/03 A3023
Loading
Personal Weather Stations






























Interactive Weather Map New forecast layout! Learn more

10-Day Weather Forecast

Advertisements
Track Severe Weather on mobile